sensor_id;sensor_type;location;lat;lon;timestamp;pressure;altitude;pressure_sealevel;temperature;humidity
44441;BME280;30146;52.268;20.944;2023-04-01T00:00:52;98396.59;;;10.88;71.09
44441;BME280;30146;52.268;20.944;2023-04-01T00:03:21;98394.92;;;10.87;71.12
44441;BME280;30146;52.268;20.944;2023-04-01T00:05:51;98392.74;;;10.86;71.18
44441;BME280;30146;52.268;20.944;2023-04-01T00:08:19;98390.86;;;10.86;71.27
44441;BME280;30146;52.268;20.944;2023-04-01T00:10:47;98383.54;;;10.85;71.42
44441;BME280;30146;52.268;20.944;2023-04-01T00:13:15;98387.73;;;10.87;71.48
44441;BME280;30146;52.268;20.944;2023-04-01T00:15:44;98384.43;;;10.89;71.51
44441;BME280;30146;52.268;20.944;2023-04-01T00:18:12;98383.02;;;10.89;71.58
44441;BME280;30146;52.268;20.944;2023-04-01T00:20:44;98379.45;;;10.89;71.37
44441;BME280;30146;52.268;20.944;2023-04-01T00:23:13;98380.13;;;10.89;71.57
44441;BME280;30146;52.268;20.944;2023-04-01T00:25:41;98384.38;;;10.90;71.65
44441;BME280;30146;52.268;20.944;2023-04-01T00:28:09;98380.87;;;10.91;71.65
44441;BME280;30146;52.268;20.944;2023-04-01T00:30:38;98371.41;;;10.93;71.62
44441;BME280;30146;52.268;20.944;2023-04-01T00:33:06;98363.52;;;10.94;71.77
44441;BME280;30146;52.268;20.944;2023-04-01T00:35:34;98366.40;;;10.94;71.72
44441;BME280;30146;52.268;20.944;2023-04-01T00:38:02;98366.22;;;10.94;71.75
44441;BME280;30146;52.268;20.944;2023-04-01T00:40:33;98367.29;;;10.93;71.67
44441;BME280;30146;52.268;20.944;2023-04-01T00:43:03;98360.10;;;10.93;71.69
44441;BME280;30146;52.268;20.944;2023-04-01T00:45:39;98365.56;;;10.93;71.66
44441;BME280;30146;52.268;20.944;2023-04-01T00:48:11;98365.58;;;10.93;71.70
44441;BME280;30146;52.268;20.944;2023-04-01T00:50:42;98362.83;;;10.93;71.71
44441;BME280;30146;52.268;20.944;2023-04-01T00:53:13;98365.69;;;10.95;71.74
44441;BME280;30146;52.268;20.944;2023-04-01T00:55:45;98363.48;;;10.95;71.64
44441;BME280;30146;52.268;20.944;2023-04-01T00:58:20;98358.45;;;10.96;71.77
44441;BME280;30146;52.268;20.944;2023-04-01T01:00:49;98362.82;;;10.98;71.76
44441;BME280;30146;52.268;20.944;2023-04-01T01:03:18;98357.32;;;10.99;71.89
44441;BME280;30146;52.268;20.944;2023-04-01T01:06:06;98358.11;;;11.00;71.86
44441;BME280;30146;52.268;20.944;2023-04-01T01:08:43;98361.15;;;11.02;71.85
44441;BME280;30146;52.268;20.944;2023-04-01T01:11:29;98358.77;;;11.01;71.80
44441;BME280;30146;52.268;20.944;2023-04-01T01:14:17;98358.79;;;11.01;71.69
44441;BME280;30146;52.268;20.944;2023-04-01T01:16:54;98358.77;;;11.01;71.77
44441;BME280;30146;52.268;20.944;2023-04-01T01:19:46;98358.11;;;11.01;71.68
44441;BME280;30146;52.268;20.944;2023-04-01T01:22:45;98352.99;;;11.00;71.81
44441;BME280;30146;52.268;20.944;2023-04-01T01:25:32;98355.43;;;10.99;71.73
44441;BME280;30146;52.268;20.944;2023-04-01T01:28:30;98360.94;;;10.98;71.68
44441;BME280;30146;52.268;20.944;2023-04-01T01:31:12;98356.16;;;10.98;71.72
44441;BME280;30146;52.268;20.944;2023-04-01T01:34:04;98355.84;;;10.97;71.75
44441;BME280;30146;52.268;20.944;2023-04-01T01:36:34;98360.13;;;10.97;71.76
44441;BME280;30146;52.268;20.944;2023-04-01T01:39:09;98364.75;;;10.97;71.72
44441;BME280;30146;52.268;20.944;2023-04-01T01:41:39;98369.07;;;10.96;71.71
44441;BME280;30146;52.268;20.944;2023-04-01T01:44:12;98367.02;;;10.96;71.77
44441;BME280;30146;52.268;20.944;2023-04-01T01:46:43;98368.69;;;10.97;71.76
44441;BME280;30146;52.268;20.944;2023-04-01T01:49:12;98366.45;;;10.97;71.82
44441;BME280;30146;52.268;20.944;2023-04-01T01:51:43;98364.89;;;10.98;71.86
44441;BME280;30146;52.268;20.944;2023-04-01T01:54:13;98364.89;;;10.97;71.79
44441;BME280;30146;52.268;20.944;2023-04-01T01:56:43;98364.19;;;10.98;71.82
44441;BME280;30146;52.268;20.944;2023-04-01T01:59:13;98363.74;;;10.96;71.83
44441;BME280;30146;52.268;20.944;2023-04-01T02:01:48;98362.81;;;10.94;71.81
44441;BME280;30146;52.268;20.944;2023-04-01T02:04:18;98359.64;;;10.92;71.85
44441;BME280;30146;52.268;20.944;2023-04-01T02:06:52;98352.86;;;10.91;71.88
44441;BME280;30146;52.268;20.944;2023-04-01T02:09:21;98354.10;;;10.90;71.89
44441;BME280;30146;52.268;20.944;2023-04-01T02:11:52;98347.15;;;10.89;71.98
44441;BME280;30146;52.268;20.944;2023-04-01T02:14:24;98347.67;;;10.88;72.07
44441;BME280;30146;52.268;20.944;2023-04-01T02:16:56;98346.73;;;10.87;71.87
44441;BME280;30146;52.268;20.944;2023-04-01T02:19:29;98346.45;;;10.85;71.99
44441;BME280;30146;52.268;20.944;2023-04-01T02:22:02;98342.52;;;10.85;72.01
44441;BME280;30146;52.268;20.944;2023-04-01T02:24:33;98338.05;;;10.86;72.04
44441;BME280;30146;52.268;20.944;2023-04-01T02:27:03;98333.09;;;10.86;72.25
44441;BME280;30146;52.268;20.944;2023-04-01T02:29:35;98331.02;;;10.87;72.17
44441;BME280;30146;52.268;20.944;2023-04-01T02:32:08;98332.40;;;10.86;72.17
44441;BME280;30146;52.268;20.944;2023-04-01T02:34:36;98328.30;;;10.86;72.13
44441;BME280;30146;52.268;20.944;2023-04-01T02:37:05;98326.66;;;10.84;71.99
44441;BME280;30146;52.268;20.944;2023-04-01T02:39:33;98326.38;;;10.83;72.12
44441;BME280;30146;52.268;20.944;2023-04-01T02:42:01;98322.98;;;10.83;72.19
44441;BME280;30146;52.268;20.944;2023-04-01T02:44:29;98323.17;;;10.82;72.28
44441;BME280;30146;52.268;20.944;2023-04-01T02:46:59;98326.70;;;10.83;72.42
44441;BME280;30146;52.268;20.944;2023-04-01T02:49:27;98327.63;;;10.82;72.27
44441;BME280;30146;52.268;20.944;2023-04-01T02:51:55;98330.14;;;10.78;72.18
44441;BME280;30146;52.268;20.944;2023-04-01T02:54:23;98329.65;;;10.78;72.27
44441;BME280;30146;52.268;20.944;2023-04-01T02:56:51;98327.40;;;10.79;72.34
44441;BME280;30146;52.268;20.944;2023-04-01T02:59:19;98330.83;;;10.78;72.35
44441;BME280;30146;52.268;20.944;2023-04-01T03:01:47;98329.80;;;10.79;72.42
44441;BME280;30146;52.268;20.944;2023-04-01T03:04:15;98335.27;;;10.79;72.37
44441;BME280;30146;52.268;20.944;2023-04-01T03:06:43;98337.00;;;10.78;72.39
44441;BME280;30146;52.268;20.944;2023-04-01T03:09:12;98339.75;;;10.78;72.29
44441;BME280;30146;52.268;20.944;2023-04-01T03:11:40;98342.31;;;10.77;72.36
44441;BME280;30146;52.268;20.944;2023-04-01T03:14:08;98341.17;;;10.77;72.37
44441;BME280;30146;52.268;20.944;2023-04-01T03:16:36;98341.91;;;10.75;72.43
44441;BME280;30146;52.268;20.944;2023-04-01T03:19:04;98347.73;;;10.75;72.40
44441;BME280;30146;52.268;20.944;2023-04-01T03:21:32;98349.99;;;10.74;72.33
44441;BME280;30146;52.268;20.944;2023-04-01T03:24:01;98355.84;;;10.73;72.32
44441;BME280;30146;52.268;20.944;2023-04-01T03:26:29;98356.61;;;10.71;72.35
44441;BME280;30146;52.268;20.944;2023-04-01T03:28:58;98354.46;;;10.69;72.10
44441;BME280;30146;52.268;20.944;2023-04-01T03:31:26;98355.89;;;10.68;72.24
44441;BME280;30146;52.268;20.944;2023-04-01T03:33:55;98353.05;;;10.66;72.39
44441;BME280;30146;52.268;20.944;2023-04-01T03:36:23;98353.31;;;10.64;72.35
44441;BME280;30146;52.268;20.944;2023-04-01T03:38:52;98356.94;;;10.64;72.52
44441;BME280;30146;52.268;20.944;2023-04-01T03:41:22;98360.03;;;10.63;72.49
44441;BME280;30146;52.268;20.944;2023-04-01T03:43:51;98363.13;;;10.62;72.33
44441;BME280;30146;52.268;20.944;2023-04-01T03:46:19;98365.25;;;10.61;72.51
44441;BME280;30146;52.268;20.944;2023-04-01T03:48:47;98365.42;;;10.61;72.58
44441;BME280;30146;52.268;20.944;2023-04-01T03:51:15;98366.77;;;10.61;72.60
44441;BME280;30146;52.268;20.944;2023-04-01T03:53:43;98371.92;;;10.61;72.49
44441;BME280;30146;52.268;20.944;2023-04-01T03:56:12;98371.60;;;10.60;72.52
44441;BME280;30146;52.268;20.944;2023-04-01T03:58:41;98375.06;;;10.59;72.52
44441;BME280;30146;52.268;20.944;2023-04-01T04:01:18;98376.97;;;10.58;72.50
44441;BME280;30146;52.268;20.944;2023-04-01T04:03:47;98381.65;;;10.56;72.46
44441;BME280;30146;52.268;20.944;2023-04-01T04:06:18;98386.85;;;10.54;72.40
44441;BME280;30146;52.268;20.944;2023-04-01T04:08:47;98389.52;;;10.52;72.41
44441;BME280;30146;52.268;20.944;2023-04-01T04:11:16;98389.85;;;10.52;72.46
44441;BME280;30146;52.268;20.944;2023-04-01T04:13:44;98389.48;;;10.53;72.52
44441;BME280;30146;52.268;20.944;2023-04-01T04:16:13;98391.77;;;10.51;72.64
44441;BME280;30146;52.268;20.944;2023-04-01T04:18:44;98395.39;;;10.51;72.42
44441;BME280;30146;52.268;20.944;2023-04-01T04:21:14;98396.46;;;10.49;72.45
44441;BME280;30146;52.268;20.944;2023-04-01T04:23:42;98397.69;;;10.49;72.51
44441;BME280;30146;52.268;20.944;2023-04-01T04:26:12;98397.95;;;10.46;72.56
44441;BME280;30146;52.268;20.944;2023-04-01T04:28:42;98402.83;;;10.44;72.35
44441;BME280;30146;52.268;20.944;2023-04-01T04:31:10;98404.77;;;10.42;72.47
44441;BME280;30146;52.268;20.944;2023-04-01T04:33:41;98405.30;;;10.42;72.50
44441;BME280;30146;52.268;20.944;2023-04-01T04:36:10;98406.52;;;10.41;72.57
44441;BME280;30146;52.268;20.944;2023-04-01T04:38:38;98408.38;;;10.42;72.71
44441;BME280;30146;52.268;20.944;2023-04-01T04:41:09;98412.66;;;10.42;72.65
44441;BME280;30146;52.268;20.944;2023-04-01T04:43:39;98414.79;;;10.39;72.44
44441;BME280;30146;52.268;20.944;2023-04-01T04:46:07;98413.63;;;10.38;72.55
44441;BME280;30146;52.268;20.944;2023-04-01T04:48:36;98415.66;;;10.39;72.61
44441;BME280;30146;52.268;20.944;2023-04-01T04:51:04;98414.23;;;10.40;72.83
44441;BME280;30146;52.268;20.944;2023-04-01T04:53:33;98413.54;;;10.41;72.63
44441;BME280;30146;52.268;20.944;2023-04-01T04:56:01;98410.29;;;10.41;72.62
44441;BME280;30146;52.268;20.944;2023-04-01T04:58:39;98412.98;;;10.42;72.65
44441;BME280;30146;52.268;20.944;2023-04-01T05:01:10;98413.65;;;10.42;72.66
44441;BME280;30146;52.268;20.944;2023-04-01T05:03:39;98417.23;;;10.43;72.64
44441;BME280;30146;52.268;20.944;2023-04-01T05:06:09;98417.38;;;10.43;72.53
44441;BME280;30146;52.268;20.944;2023-04-01T05:08:38;98417.16;;;10.44;72.70
44441;BME280;30146;52.268;20.944;2023-04-01T05:11:09;98418.13;;;10.46;72.70
44441;BME280;30146;52.268;20.944;2023-04-01T05:13:42;98415.21;;;10.46;72.53
44441;BME280;30146;52.268;20.944;2023-04-01T05:16:11;98417.08;;;10.46;72.49
44441;BME280;30146;52.268;20.944;2023-04-01T05:18:40;98417.20;;;10.47;72.46
44441;BME280;30146;52.268;20.944;2023-04-01T05:21:09;98417.02;;;10.48;72.44
44441;BME280;30146;52.268;20.944;2023-04-01T05:23:38;98420.09;;;10.48;72.52
44441;BME280;30146;52.268;20.944;2023-04-01T05:26:09;98422.30;;;10.48;72.39
44441;BME280;30146;52.268;20.944;2023-04-01T05:28:38;98424.15;;;10.49;72.51
44441;BME280;30146;52.268;20.944;2023-04-01T05:31:07;98422.25;;;10.49;72.23
44441;BME280;30146;52.268;20.944;2023-04-01T05:33:39;98420.96;;;10.52;72.34
44441;BME280;30146;52.268;20.944;2023-04-01T05:36:09;98419.27;;;10.55;72.40
44441;BME280;30146;52.268;20.944;2023-04-01T05:38:38;98417.76;;;10.59;72.17
44441;BME280;30146;52.268;20.944;2023-04-01T05:41:09;98420.95;;;10.65;72.28
44441;BME280;30146;52.268;20.944;2023-04-01T05:43:40;98422.68;;;10.72;72.36
44441;BME280;30146;52.268;20.944;2023-04-01T05:46:28;98423.77;;;10.84;72.49
44441;BME280;30146;52.268;20.944;2023-04-01T05:49:20;98425.84;;;10.96;72.28
44441;BME280;30146;52.268;20.944;2023-04-01T05:51:50;98427.57;;;11.03;72.22
44441;BME280;30146;52.268;20.944;2023-04-01T05:54:19;98428.54;;;11.13;72.04
44441;BME280;30146;52.268;20.944;2023-04-01T05:56:47;98429.41;;;11.29;72.20
44441;BME280;30146;52.268;20.944;2023-04-01T05:59:17;98429.28;;;11.51;72.36
44441;BME280;30146;52.268;20.944;2023-04-01T06:01:46;98429.02;;;11.99;73.13
44441;BME280;30146;52.268;20.944;2023-04-01T06:04:16;98428.20;;;12.33;72.57
44441;BME280;30146;52.268;20.944;2023-04-01T06:06:45;98426.55;;;12.63;72.37
44441;BME280;30146;52.268;20.944;2023-04-01T06:09:16;98428.63;;;12.91;71.85
44441;BME280;30146;52.268;20.944;2023-04-01T06:12:15;98427.33;;;13.47;72.28
44441;BME280;30146;52.268;20.944;2023-04-01T06:15:10;98425.84;;;13.83;71.23
44441;BME280;30146;52.268;20.944;2023-04-01T06:27:59;98435.91;;;13.58;67.70
44441;BME280;30146;52.268;20.944;2023-04-01T06:30:34;98440.87;;;13.45;67.44
44441;BME280;30146;52.268;20.944;2023-04-01T06:33:27;98444.12;;;13.31;67.32
44441;BME280;30146;52.268;20.944;2023-04-01T06:48:01;98441.36;;;13.32;66.65
44441;BME280;30146;52.268;20.944;2023-04-01T06:50:58;98441.80;;;13.33;66.73
44441;BME280;30146;52.268;20.944;2023-04-01T06:54:11;98443.86;;;13.37;66.95
44441;BME280;30146;52.268;20.944;2023-04-01T06:57:23;98443.04;;;13.40;67.07
44441;BME280;30146;52.268;20.944;2023-04-01T07:00:02;98444.35;;;13.41;66.93
44441;BME280;30146;52.268;20.944;2023-04-01T07:02:41;98442.84;;;13.43;66.98
44441;BME280;30146;52.268;20.944;2023-04-01T07:05:15;98443.77;;;13.52;67.53
44441;BME280;30146;52.268;20.944;2023-04-01T07:07:48;98446.34;;;13.65;67.64
44441;BME280;30146;52.268;20.944;2023-04-01T07:10:44;98448.13;;;13.77;67.29
44441;BME280;30146;52.268;20.944;2023-04-01T07:13:44;98451.08;;;13.86;66.83
44441;BME280;30146;52.268;20.944;2023-04-01T07:16:24;98452.16;;;13.88;66.57
44441;BME280;30146;52.268;20.944;2023-04-01T07:19:00;98448.97;;;13.90;66.71
44441;BME280;30146;52.268;20.944;2023-04-01T07:21:48;98448.15;;;13.93;66.50
44441;BME280;30146;52.268;20.944;2023-04-01T07:24:29;98445.01;;;13.97;66.48
44441;BME280;30146;52.268;20.944;2023-04-01T07:27:11;98446.02;;;14.07;66.47
44441;BME280;30146;52.268;20.944;2023-04-01T07:29:43;98448.14;;;14.19;66.33
44441;BME280;30146;52.268;20.944;2023-04-01T07:32:21;98449.69;;;14.31;66.66
44441;BME280;30146;52.268;20.944;2023-04-01T07:35:07;98443.83;;;14.37;66.25
44441;BME280;30146;52.268;20.944;2023-04-01T07:37:48;98444.52;;;14.37;66.09
44441;BME280;30146;52.268;20.944;2023-04-01T07:40:33;98448.42;;;14.35;65.70
44441;BME280;30146;52.268;20.944;2023-04-01T07:51:05;98446.77;;;14.09;65.29
44441;BME280;30146;52.268;20.944;2023-04-01T08:01:52;98445.73;;;14.02;65.35
44441;BME280;30146;52.268;20.944;2023-04-01T08:09:15;98455.75;;;13.89;64.94
44441;BME280;30146;52.268;20.944;2023-04-01T08:16:57;98463.69;;;13.75;64.96
44441;BME280;30146;52.268;20.944;2023-04-01T08:19:52;98463.63;;;13.70;64.92
44441;BME280;30146;52.268;20.944;2023-04-01T08:25:53;98460.73;;;13.66;65.16
44441;BME280;30146;52.268;20.944;2023-04-01T08:28:34;98465.92;;;13.64;65.24
44441;BME280;30146;52.268;20.944;2023-04-01T08:31:14;98468.48;;;13.72;65.51
44441;BME280;30146;52.268;20.944;2023-04-01T08:33:52;98466.72;;;13.93;65.99
44441;BME280;30146;52.268;20.944;2023-04-01T08:36:28;98462.20;;;14.15;66.01
44441;BME280;30146;52.268;20.944;2023-04-01T08:39:35;98469.68;;;14.39;65.91
44441;BME280;30146;52.268;20.944;2023-04-01T08:42:38;98468.96;;;14.62;65.59
44441;BME280;30146;52.268;20.944;2023-04-01T08:45:47;98463.95;;;14.90;65.24
44441;BME280;30146;52.268;20.944;2023-04-01T08:48:47;98471.05;;;15.07;64.61
44441;BME280;30146;52.268;20.944;2023-04-01T08:51:33;98474.55;;;15.18;64.32
44441;BME280;30146;52.268;20.944;2023-04-01T08:54:42;98478.56;;;15.29;64.26
44441;BME280;30146;52.268;20.944;2023-04-01T08:57:24;98479.34;;;15.30;63.43
44441;BME280;30146;52.268;20.944;2023-04-01T09:00:46;98478.68;;;15.18;62.66
44441;BME280;30146;52.268;20.944;2023-04-01T09:03:53;98481.02;;;15.08;62.48
44441;BME280;30146;52.268;20.944;2023-04-01T09:06:38;98481.98;;;14.96;62.41
44441;BME280;30146;52.268;20.944;2023-04-01T09:09:42;98479.60;;;14.87;62.49
44441;BME280;30146;52.268;20.944;2023-04-01T09:12:33;98485.88;;;14.70;62.10
44441;BME280;30146;52.268;20.944;2023-04-01T09:15:21;98484.66;;;14.48;61.85
44441;BME280;30146;52.268;20.944;2023-04-01T09:18:44;98487.02;;;14.31;61.92
44441;BME280;30146;52.268;20.944;2023-04-01T09:21:49;98493.15;;;14.12;62.10
44441;BME280;30146;52.268;20.944;2023-04-01T09:24:44;98492.90;;;14.00;62.43
44441;BME280;30146;52.268;20.944;2023-04-01T09:27:29;98494.45;;;13.94;62.65
44441;BME280;30146;52.268;20.944;2023-04-01T09:33:42;98498.05;;;13.81;62.60
44441;BME280;30146;52.268;20.944;2023-04-01T09:36:31;98496.33;;;13.71;62.17
44441;BME280;30146;52.268;20.944;2023-04-01T09:39:34;98498.08;;;13.63;62.24
44441;BME280;30146;52.268;20.944;2023-04-01T09:42:22;98502.35;;;13.61;62.54
44441;BME280;30146;52.268;20.944;2023-04-01T09:45:20;98508.16;;;13.61;62.54
44441;BME280;30146;52.268;20.944;2023-04-01T09:47:57;98504.80;;;13.60;62.78
44441;BME280;30146;52.268;20.944;2023-04-01T09:50:38;98502.60;;;13.59;62.80
44441;BME280;30146;52.268;20.944;2023-04-01T09:53:23;98503.16;;;13.62;62.99
44441;BME280;30146;52.268;20.944;2023-04-01T09:56:32;98503.00;;;13.65;62.98
44441;BME280;30146;52.268;20.944;2023-04-01T09:59:26;98502.73;;;13.67;62.94
44441;BME280;30146;52.268;20.944;2023-04-01T10:02:58;98508.52;;;13.67;63.07
44441;BME280;30146;52.268;20.944;2023-04-01T10:05:55;98513.79;;;13.72;63.37
44441;BME280;30146;52.268;20.944;2023-04-01T10:08:41;98512.36;;;13.74;63.31
44441;BME280;30146;52.268;20.944;2023-04-01T10:14:39;98508.65;;;13.75;63.36
44441;BME280;30146;52.268;20.944;2023-04-01T10:20:45;98518.79;;;13.69;62.89
44441;BME280;30146;52.268;20.944;2023-04-01T10:23:36;98517.55;;;13.66;62.66
44441;BME280;30146;52.268;20.944;2023-04-01T10:26:48;98523.27;;;13.65;62.73
44441;BME280;30146;52.268;20.944;2023-04-01T10:30:09;98516.91;;;13.75;63.34
44441;BME280;30146;52.268;20.944;2023-04-01T10:33:32;98515.14;;;13.93;63.54
44441;BME280;30146;52.268;20.944;2023-04-01T10:36:24;98512.61;;;14.15;63.66
44441;BME280;30146;52.268;20.944;2023-04-01T10:39:29;98512.11;;;14.30;63.01
44441;BME280;30146;52.268;20.944;2023-04-01T10:42:55;98512.91;;;14.44;62.75
44441;BME280;30146;52.268;20.944;2023-04-01T10:52:13;98513.96;;;14.70;61.58
44441;BME280;30146;52.268;20.944;2023-04-01T10:55:25;98510.88;;;14.69;61.51
44441;BME280;30146;52.268;20.944;2023-04-01T11:08:47;98519.84;;;14.40;60.78
44441;BME280;30146;52.268;20.944;2023-04-01T11:11:52;98521.77;;;14.23;60.55
44441;BME280;30146;52.268;20.944;2023-04-01T11:14:57;98522.61;;;14.11;61.02
44441;BME280;30146;52.268;20.944;2023-04-01T11:18:01;98527.01;;;14.02;61.38
44441;BME280;30146;52.268;20.944;2023-04-01T11:24:06;98529.98;;;13.88;61.64
44441;BME280;30146;52.268;20.944;2023-04-01T11:26:55;98528.80;;;13.84;62.04
44441;BME280;30146;52.268;20.944;2023-04-01T11:30:01;98527.52;;;13.82;62.22
44441;BME280;30146;52.268;20.944;2023-04-01T11:32:43;98529.18;;;13.80;62.47
44441;BME280;30146;52.268;20.944;2023-04-01T11:35:31;98532.09;;;13.77;62.66
44441;BME280;30146;52.268;20.944;2023-04-01T11:38:17;98538.87;;;13.75;62.55
44441;BME280;30146;52.268;20.944;2023-04-01T11:40:56;98537.73;;;13.74;62.63
44441;BME280;30146;52.268;20.944;2023-04-01T11:44:15;98539.98;;;13.77;62.65
44441;BME280;30146;52.268;20.944;2023-04-01T11:47:55;98537.22;;;13.84;62.72
44441;BME280;30146;52.268;20.944;2023-04-01T11:50:41;98541.73;;;13.93;62.74
44441;BME280;30146;52.268;20.944;2023-04-01T11:53:27;98539.30;;;14.00;62.72
44441;BME280;30146;52.268;20.944;2023-04-01T11:56:16;98540.52;;;14.10;62.92
44441;BME280;30146;52.268;20.944;2023-04-01T12:02:01;98540.36;;;14.32;62.80
44441;BME280;30146;52.268;20.944;2023-04-01T12:05:03;98533.98;;;14.42;62.41
44441;BME280;30146;52.268;20.944;2023-04-01T12:07:55;98529.98;;;14.50;62.04
44441;BME280;30146;52.268;20.944;2023-04-01T12:10:37;98533.14;;;14.61;61.88
44441;BME280;30146;52.268;20.944;2023-04-01T12:13:16;98534.39;;;14.73;61.83
44441;BME280;30146;52.268;20.944;2023-04-01T12:16:03;98531.01;;;14.85;61.61
44441;BME280;30146;52.268;20.944;2023-04-01T12:18:41;98533.92;;;14.91;61.17
44441;BME280;30146;52.268;20.944;2023-04-01T12:21:24;98534.48;;;14.96;60.93
44441;BME280;30146;52.268;20.944;2023-04-01T12:24:22;98534.33;;;15.02;61.10
44441;BME280;30146;52.268;20.944;2023-04-01T12:27:04;98535.13;;;15.12;60.98
44441;BME280;30146;52.268;20.944;2023-04-01T12:32:49;98539.29;;;15.24;60.49
44441;BME280;30146;52.268;20.944;2023-04-01T12:35:29;98539.23;;;15.25;60.40
44441;BME280;30146;52.268;20.944;2023-04-01T12:38:16;98540.34;;;15.26;60.41
44441;BME280;30146;52.268;20.944;2023-04-01T12:41:01;98548.29;;;15.29;60.16
44441;BME280;30146;52.268;20.944;2023-04-01T12:44:02;98547.80;;;15.29;59.94
44441;BME280;30146;52.268;20.944;2023-04-01T12:46:54;98550.20;;;15.31;59.91
44441;BME280;30146;52.268;20.944;2023-04-01T12:49:40;98550.64;;;15.36;59.95
44441;BME280;30146;52.268;20.944;2023-04-01T12:52:20;98546.13;;;15.39;59.86
44441;BME280;30146;52.268;20.944;2023-04-01T12:55:12;98547.96;;;15.44;59.70
44441;BME280;30146;52.268;20.944;2023-04-01T12:58:20;98550.51;;;15.44;59.34
44441;BME280;30146;52.268;20.944;2023-04-01T13:04:24;98554.96;;;15.35;58.99
44441;BME280;30146;52.268;20.944;2023-04-01T13:07:13;98560.92;;;15.31;58.98
44441;BME280;30146;52.268;20.944;2023-04-01T13:10:06;98565.75;;;15.21;58.82
44441;BME280;30146;52.268;20.944;2023-04-01T13:12:56;98570.33;;;15.08;58.84
44441;BME280;30146;52.268;20.944;2023-04-01T13:15:35;98572.09;;;14.91;59.03
44441;BME280;30146;52.268;20.944;2023-04-01T13:18:16;98572.48;;;14.75;59.14
44441;BME280;30146;52.268;20.944;2023-04-01T13:21:21;98575.31;;;14.54;59.34
44441;BME280;30146;52.268;20.944;2023-04-01T13:24:09;98579.56;;;14.32;59.58
44441;BME280;30146;52.268;20.944;2023-04-01T13:26:58;98587.58;;;14.10;59.84
44441;BME280;30146;52.268;20.944;2023-04-01T13:29:34;98589.06;;;13.88;60.22
44441;BME280;30146;52.268;20.944;2023-04-01T13:32:22;98592.58;;;13.73;60.66
44441;BME280;30146;52.268;20.944;2023-04-01T13:35:22;98599.38;;;13.60;61.24
44441;BME280;30146;52.268;20.944;2023-04-01T13:38:08;98602.00;;;13.52;61.51
44441;BME280;30146;52.268;20.944;2023-04-01T13:40:52;98606.61;;;13.46;61.86
44441;BME280;30146;52.268;20.944;2023-04-01T13:43:36;98607.65;;;13.42;62.16
44441;BME280;30146;52.268;20.944;2023-04-01T13:46:19;98608.75;;;13.41;62.43
44441;BME280;30146;52.268;20.944;2023-04-01T13:52:10;98618.05;;;13.33;62.45
44441;BME280;30146;52.268;20.944;2023-04-01T13:55:18;98618.40;;;13.25;62.38
44441;BME280;30146;52.268;20.944;2023-04-01T14:01:00;98623.36;;;13.03;62.77
44441;BME280;30146;52.268;20.944;2023-04-01T14:03:47;98626.61;;;12.93;62.82
44441;BME280;30146;52.268;20.944;2023-04-01T14:06:36;98627.67;;;12.81;62.95
44441;BME280;30146;52.268;20.944;2023-04-01T14:12:40;98632.27;;;12.59;63.35
44441;BME280;30146;52.268;20.944;2023-04-01T14:15:32;98634.34;;;12.51;63.65
44441;BME280;30146;52.268;20.944;2023-04-01T14:18:27;98641.45;;;12.45;63.94
44441;BME280;30146;52.268;20.944;2023-04-01T14:21:17;98640.00;;;12.43;64.21
44441;BME280;30146;52.268;20.944;2023-04-01T14:24:12;98641.71;;;12.39;64.24
44441;BME280;30146;52.268;20.944;2023-04-01T14:27:10;98641.59;;;12.34;64.27
44441;BME280;30146;52.268;20.944;2023-04-01T14:29:55;98646.60;;;12.25;64.17
44441;BME280;30146;52.268;20.944;2023-04-01T14:32:38;98647.05;;;12.15;64.09
44441;BME280;30146;52.268;20.944;2023-04-01T14:35:30;98647.88;;;12.03;64.16
44441;BME280;30146;52.268;20.944;2023-04-01T14:38:45;98652.80;;;11.92;64.38
44441;BME280;30146;52.268;20.944;2023-04-01T14:41:39;98656.30;;;11.86;64.59
44441;BME280;30146;52.268;20.944;2023-04-01T14:44:36;98662.85;;;11.81;64.67
44441;BME280;30146;52.268;20.944;2023-04-01T14:47:39;98670.17;;;11.77;64.81
44441;BME280;30146;52.268;20.944;2023-04-01T14:50:16;98676.30;;;11.74;65.03
44441;BME280;30146;52.268;20.944;2023-04-01T14:52:55;98679.62;;;11.68;65.05
44441;BME280;30146;52.268;20.944;2023-04-01T14:55:34;98682.11;;;11.62;65.09
44441;BME280;30146;52.268;20.944;2023-04-01T14:58:16;98682.89;;;11.55;65.23
44441;BME280;30146;52.268;20.944;2023-04-01T15:00:58;98685.96;;;11.46;65.23
44441;BME280;30146;52.268;20.944;2023-04-01T15:03:36;98691.77;;;11.38;65.52
44441;BME280;30146;52.268;20.944;2023-04-01T15:06:41;98696.79;;;11.32;65.71
44441;BME280;30146;52.268;20.944;2023-04-01T15:09:21;98702.11;;;11.27;65.90
44441;BME280;30146;52.268;20.944;2023-04-01T15:12:06;98704.75;;;11.25;66.09
44441;BME280;30146;52.268;20.944;2023-04-01T15:14:45;98707.20;;;11.24;66.40
44441;BME280;30146;52.268;20.944;2023-04-01T15:17:29;98711.04;;;11.22;66.29
44441;BME280;30146;52.268;20.944;2023-04-01T15:20:22;98711.14;;;11.19;66.36
44441;BME280;30146;52.268;20.944;2023-04-01T15:23:17;98715.96;;;11.18;66.54
44441;BME280;30146;52.268;20.944;2023-04-01T15:29:21;98724.30;;;11.14;66.70
44441;BME280;30146;52.268;20.944;2023-04-01T15:31:59;98727.81;;;11.12;66.82
44441;BME280;30146;52.268;20.944;2023-04-01T15:34:40;98734.22;;;11.10;66.63
44441;BME280;30146;52.268;20.944;2023-04-01T15:37:20;98737.04;;;11.08;66.67
44441;BME280;30146;52.268;20.944;2023-04-01T15:40:05;98744.47;;;11.06;66.78
44441;BME280;30146;52.268;20.944;2023-04-01T15:43:00;98748.67;;;11.04;67.01
44441;BME280;30146;52.268;20.944;2023-04-01T15:45:42;98750.42;;;11.02;67.09
44441;BME280;30146;52.268;20.944;2023-04-01T15:48:39;98755.59;;;11.01;67.16